sensor_id;sensor_type;location;lat;lon;timestamp;temperature;humidity
12060;DHT22;6091;51.432;6.880;2023-07-29T00:00:20;27.60;51.00
12060;DHT22;6091;51.432;6.880;2023-07-29T00:02:48;27.60;50.40
12060;DHT22;6091;51.432;6.880;2023-07-29T00:05:15;27.60;50.20
12060;DHT22;6091;51.432;6.880;2023-07-29T00:07:42;27.60;50.30
12060;DHT22;6091;51.432;6.880;2023-07-29T00:10:09;27.60;50.20
12060;DHT22;6091;51.432;6.880;2023-07-29T00:12:36;27.60;50.20
12060;DHT22;6091;51.432;6.880;2023-07-29T00:15:04;27.60;50.30
12060;DHT22;6091;51.432;6.880;2023-07-29T00:17:31;27.60;50.40
12060;DHT22;6091;51.432;6.880;2023-07-29T00:19:59;27.60;50.30
12060;DHT22;6091;51.432;6.880;2023-07-29T00:22:26;27.60;50.40
12060;DHT22;6091;51.432;6.880;2023-07-29T00:24:53;27.50;50.20
12060;DHT22;6091;51.432;6.880;2023-07-29T00:27:33;27.60;50.40
12060;DHT22;6091;51.432;6.880;2023-07-29T00:30:00;27.60;50.30
12060;DHT22;6091;51.432;6.880;2023-07-29T00:32:29;27.50;50.10
12060;DHT22;6091;51.432;6.880;2023-07-29T00:34:57;27.60;50.40
12060;DHT22;6091;51.432;6.880;2023-07-29T00:37:24;27.60;50.30
12060;DHT22;6091;51.432;6.880;2023-07-29T00:39:51;27.60;50.40
12060;DHT22;6091;51.432;6.880;2023-07-29T00:42:18;26.40;49.50
12060;DHT22;6091;51.432;6.880;2023-07-29T00:44:45;27.50;50.50
12060;DHT22;6091;51.432;6.880;2023-07-29T00:47:15;27.50;50.20
12060;DHT22;6091;51.432;6.880;2023-07-29T00:49:44;27.50;50.30
12060;DHT22;6091;51.432;6.880;2023-07-29T00:52:12;27.50;50.40
12060;DHT22;6091;51.432;6.880;2023-07-29T00:54:39;27.50;50.20
12060;DHT22;6091;51.432;6.880;2023-07-29T00:57:08;27.50;50.30
12060;DHT22;6091;51.432;6.880;2023-07-29T00:59:38;27.50;50.30
12060;DHT22;6091;51.432;6.880;2023-07-29T01:02:05;27.50;50.20
12060;DHT22;6091;51.432;6.880;2023-07-29T01:04:33;27.50;50.40
12060;DHT22;6091;51.432;6.880;2023-07-29T01:10:39;27.50;50.30
12060;DHT22;6091;51.432;6.880;2023-07-29T01:13:37;27.50;50.30
12060;DHT22;6091;51.432;6.880;2023-07-29T01:16:25;27.50;50.30
12060;DHT22;6091;51.432;6.880;2023-07-29T01:19:01;27.50;50.30
12060;DHT22;6091;51.432;6.880;2023-07-29T01:21:35;27.50;50.30
12060;DHT22;6091;51.432;6.880;2023-07-29T01:24:03;27.50;50.30
12060;DHT22;6091;51.432;6.880;2023-07-29T01:26:30;27.40;50.30
12060;DHT22;6091;51.432;6.880;2023-07-29T01:28:58;27.50;50.30
12060;DHT22;6091;51.432;6.880;2023-07-29T01:31:41;27.50;51.00
12060;DHT22;6091;51.432;6.880;2023-07-29T01:34:35;27.50;50.30
12060;DHT22;6091;51.432;6.880;2023-07-29T01:37:19;27.40;50.30
12060;DHT22;6091;51.432;6.880;2023-07-29T01:39:51;27.00;50.00
12060;DHT22;6091;51.432;6.880;2023-07-29T01:42:24;27.40;50.30
12060;DHT22;6091;51.432;6.880;2023-07-29T01:44:56;27.50;50.30
12060;DHT22;6091;51.432;6.880;2023-07-29T01:47:23;27.50;50.40
12060;DHT22;6091;51.432;6.880;2023-07-29T01:49:50;27.40;50.30
12060;DHT22;6091;51.432;6.880;2023-07-29T01:52:19;27.40;50.30
12060;DHT22;6091;51.432;6.880;2023-07-29T01:54:46;27.40;50.30
12060;DHT22;6091;51.432;6.880;2023-07-29T01:57:13;27.40;50.30
12060;DHT22;6091;51.432;6.880;2023-07-29T01:59:40;27.40;50.30
12060;DHT22;6091;51.432;6.880;2023-07-29T02:02:07;27.40;50.30
12060;DHT22;6091;51.432;6.880;2023-07-29T02:04:35;27.40;50.30
12060;DHT22;6091;51.432;6.880;2023-07-29T02:07:03;27.40;50.30
12060;DHT22;6091;51.432;6.880;2023-07-29T02:09:31;27.40;50.30
12060;DHT22;6091;51.432;6.880;2023-07-29T02:11:58;27.40;50.30
12060;DHT22;6091;51.432;6.880;2023-07-29T02:14:25;27.40;50.20
12060;DHT22;6091;51.432;6.880;2023-07-29T02:16:52;27.40;50.30
12060;DHT22;6091;51.432;6.880;2023-07-29T02:19:19;27.40;50.20
12060;DHT22;6091;51.432;6.880;2023-07-29T02:21:46;27.40;50.20
12060;DHT22;6091;51.432;6.880;2023-07-29T02:24:13;27.40;50.30
12060;DHT22;6091;51.432;6.880;2023-07-29T02:26:41;27.40;50.20
12060;DHT22;6091;51.432;6.880;2023-07-29T02:29:08;27.40;50.30
12060;DHT22;6091;51.432;6.880;2023-07-29T02:31:35;27.40;50.30
12060;DHT22;6091;51.432;6.880;2023-07-29T02:34:04;27.40;50.20
12060;DHT22;6091;51.432;6.880;2023-07-29T02:36:31;27.40;50.20
12060;DHT22;6091;51.432;6.880;2023-07-29T02:38:58;27.40;50.20
12060;DHT22;6091;51.432;6.880;2023-07-29T02:41:25;27.40;50.20
12060;DHT22;6091;51.432;6.880;2023-07-29T02:43:52;27.40;50.30
12060;DHT22;6091;51.432;6.880;2023-07-29T02:46:19;27.40;50.20
12060;DHT22;6091;51.432;6.880;2023-07-29T02:48:46;27.40;50.20
12060;DHT22;6091;51.432;6.880;2023-07-29T02:51:14;27.40;50.30
12060;DHT22;6091;51.432;6.880;2023-07-29T02:53:41;27.40;50.20
12060;DHT22;6091;51.432;6.880;2023-07-29T02:56:08;27.40;50.20
12060;DHT22;6091;51.432;6.880;2023-07-29T02:58:37;27.40;50.20
12060;DHT22;6091;51.432;6.880;2023-07-29T03:01:07;27.30;50.10
12060;DHT22;6091;51.432;6.880;2023-07-29T03:03:34;27.40;50.20
12060;DHT22;6091;51.432;6.880;2023-07-29T03:06:06;27.40;50.20
12060;DHT22;6091;51.432;6.880;2023-07-29T03:08:35;27.40;50.20
12060;DHT22;6091;51.432;6.880;2023-07-29T03:11:14;27.40;50.20
12060;DHT22;6091;51.432;6.880;2023-07-29T03:13:42;27.40;50.20
12060;DHT22;6091;51.432;6.880;2023-07-29T03:16:15;27.40;50.20
12060;DHT22;6091;51.432;6.880;2023-07-29T03:18:44;27.40;50.20
12060;DHT22;6091;51.432;6.880;2023-07-29T03:21:11;27.40;50.20
12060;DHT22;6091;51.432;6.880;2023-07-29T03:23:38;27.40;50.20
12060;DHT22;6091;51.432;6.880;2023-07-29T03:26:05;27.40;50.20
12060;DHT22;6091;51.432;6.880;2023-07-29T03:28:40;27.40;50.20
12060;DHT22;6091;51.432;6.880;2023-07-29T03:31:08;27.40;50.20
12060;DHT22;6091;51.432;6.880;2023-07-29T03:33:36;27.40;50.20
12060;DHT22;6091;51.432;6.880;2023-07-29T03:36:03;27.40;50.20
12060;DHT22;6091;51.432;6.880;2023-07-29T03:38:30;27.40;50.30
12060;DHT22;6091;51.432;6.880;2023-07-29T03:40:59;27.40;50.20
12060;DHT22;6091;51.432;6.880;2023-07-29T03:43:28;27.40;50.30
12060;DHT22;6091;51.432;6.880;2023-07-29T03:45:55;27.40;50.20
12060;DHT22;6091;51.432;6.880;2023-07-29T03:48:23;27.40;50.20
12060;DHT22;6091;51.432;6.880;2023-07-29T03:50:50;27.40;50.20
12060;DHT22;6091;51.432;6.880;2023-07-29T03:53:17;27.40;50.20
12060;DHT22;6091;51.432;6.880;2023-07-29T03:55:44;27.40;50.20
12060;DHT22;6091;51.432;6.880;2023-07-29T03:58:12;27.40;50.20
12060;DHT22;6091;51.432;6.880;2023-07-29T04:00:39;27.40;50.20
12060;DHT22;6091;51.432;6.880;2023-07-29T04:03:06;30.10;51.80
12060;DHT22;6091;51.432;6.880;2023-07-29T04:05:33;27.40;50.20
12060;DHT22;6091;51.432;6.880;2023-07-29T04:08:01;27.40;50.20
12060;DHT22;6091;51.432;6.880;2023-07-29T04:10:29;27.40;50.10
12060;DHT22;6091;51.432;6.880;2023-07-29T04:12:58;27.40;50.20
12060;DHT22;6091;51.432;6.880;2023-07-29T04:15:25;27.40;50.20
12060;DHT22;6091;51.432;6.880;2023-07-29T04:17:52;27.40;50.20
12060;DHT22;6091;51.432;6.880;2023-07-29T04:20:19;27.40;50.20
12060;DHT22;6091;51.432;6.880;2023-07-29T04:22:46;27.40;50.20
12060;DHT22;6091;51.432;6.880;2023-07-29T04:25:13;27.40;50.20
12060;DHT22;6091;51.432;6.880;2023-07-29T04:27:40;27.40;50.20
12060;DHT22;6091;51.432;6.880;2023-07-29T04:30:08;27.40;50.20
12060;DHT22;6091;51.432;6.880;2023-07-29T04:32:35;27.40;50.20
12060;DHT22;6091;51.432;6.880;2023-07-29T04:35:02;27.40;50.20
12060;DHT22;6091;51.432;6.880;2023-07-29T04:37:29;27.40;50.20
12060;DHT22;6091;51.432;6.880;2023-07-29T04:39:59;27.40;50.20
12060;DHT22;6091;51.432;6.880;2023-07-29T04:42:26;27.40;50.20
12060;DHT22;6091;51.432;6.880;2023-07-29T04:44:53;27.40;50.20
12060;DHT22;6091;51.432;6.880;2023-07-29T04:47:23;27.40;50.20
12060;DHT22;6091;51.432;6.880;2023-07-29T04:49:53;27.40;50.20
12060;DHT22;6091;51.432;6.880;2023-07-29T04:52:20;27.40;50.20
12060;DHT22;6091;51.432;6.880;2023-07-29T04:54:48;27.40;50.20
12060;DHT22;6091;51.432;6.880;2023-07-29T04:57:15;27.40;50.20
12060;DHT22;6091;51.432;6.880;2023-07-29T04:59:42;27.40;50.20
12060;DHT22;6091;51.432;6.880;2023-07-29T05:02:09;27.40;50.20
12060;DHT22;6091;51.432;6.880;2023-07-29T05:04:36;27.40;50.20
12060;DHT22;6091;51.432;6.880;2023-07-29T05:07:04;27.40;50.10
12060;DHT22;6091;51.432;6.880;2023-07-29T05:09:31;27.40;50.20
12060;DHT22;6091;51.432;6.880;2023-07-29T05:11:58;27.30;50.10
12060;DHT22;6091;51.432;6.880;2023-07-29T05:14:25;27.40;50.20
12060;DHT22;6091;51.432;6.880;2023-07-29T05:16:52;27.40;50.10
12060;DHT22;6091;51.432;6.880;2023-07-29T05:19:19;27.40;50.20
12060;DHT22;6091;51.432;6.880;2023-07-29T05:21:46;27.40;50.20
12060;DHT22;6091;51.432;6.880;2023-07-29T05:24:13;27.40;50.20
12060;DHT22;6091;51.432;6.880;2023-07-29T05:26:40;27.40;50.20
12060;DHT22;6091;51.432;6.880;2023-07-29T05:29:07;27.40;50.20
12060;DHT22;6091;51.432;6.880;2023-07-29T05:31:34;27.40;50.10
12060;DHT22;6091;51.432;6.880;2023-07-29T05:34:01;27.40;50.10
12060;DHT22;6091;51.432;6.880;2023-07-29T05:36:28;27.40;50.10
12060;DHT22;6091;51.432;6.880;2023-07-29T05:38:56;27.40;50.10
12060;DHT22;6091;51.432;6.880;2023-07-29T05:41:23;27.40;50.10
12060;DHT22;6091;51.432;6.880;2023-07-29T05:43:50;27.40;50.10
12060;DHT22;6091;51.432;6.880;2023-07-29T05:46:17;27.40;50.10
12060;DHT22;6091;51.432;6.880;2023-07-29T05:48:44;27.40;50.10
12060;DHT22;6091;51.432;6.880;2023-07-29T05:51:11;27.40;50.10
12060;DHT22;6091;51.432;6.880;2023-07-29T05:53:38;27.40;50.10
12060;DHT22;6091;51.432;6.880;2023-07-29T05:56:06;27.40;50.10
12060;DHT22;6091;51.432;6.880;2023-07-29T05:58:33;27.40;50.10
12060;DHT22;6091;51.432;6.880;2023-07-29T06:01:00;27.40;50.00
12060;DHT22;6091;51.432;6.880;2023-07-29T06:03:27;27.40;50.10
12060;DHT22;6091;51.432;6.880;2023-07-29T06:05:55;27.40;50.10
12060;DHT22;6091;51.432;6.880;2023-07-29T06:08:22;27.40;50.10
12060;DHT22;6091;51.432;6.880;2023-07-29T06:10:49;27.50;50.10
12060;DHT22;6091;51.432;6.880;2023-07-29T06:13:16;27.50;50.20
12060;DHT22;6091;51.432;6.880;2023-07-29T06:15:43;27.40;50.10
12060;DHT22;6091;51.432;6.880;2023-07-29T06:18:10;27.40;50.00
12060;DHT22;6091;51.432;6.880;2023-07-29T06:20:37;27.40;50.10
12060;DHT22;6091;51.432;6.880;2023-07-29T06:23:04;27.40;50.10
12060;DHT22;6091;51.432;6.880;2023-07-29T06:25:31;27.40;50.10
12060;DHT22;6091;51.432;6.880;2023-07-29T06:27:59;27.40;50.10
12060;DHT22;6091;51.432;6.880;2023-07-29T06:30:26;27.50;50.20
12060;DHT22;6091;51.432;6.880;2023-07-29T06:32:53;27.40;50.20
12060;DHT22;6091;51.432;6.880;2023-07-29T06:35:21;27.40;50.20
12060;DHT22;6091;51.432;6.880;2023-07-29T06:37:48;27.50;50.30
12060;DHT22;6091;51.432;6.880;2023-07-29T06:40:16;27.50;50.30
12060;DHT22;6091;51.432;6.880;2023-07-29T06:42:43;27.50;50.30
12060;DHT22;6091;51.432;6.880;2023-07-29T06:45:13;27.50;50.30
12060;DHT22;6091;51.432;6.880;2023-07-29T06:47:42;27.60;50.40
12060;DHT22;6091;51.432;6.880;2023-07-29T06:50:09;27.60;50.40
12060;DHT22;6091;51.432;6.880;2023-07-29T06:52:36;27.60;50.40
12060;DHT22;6091;51.432;6.880;2023-07-29T06:55:05;27.60;50.40
12060;DHT22;6091;51.432;6.880;2023-07-29T06:57:32;27.60;50.40
12060;DHT22;6091;51.432;6.880;2023-07-29T06:59:59;27.60;50.40
12060;DHT22;6091;51.432;6.880;2023-07-29T07:02:30;27.60;50.40
12060;DHT22;6091;51.432;6.880;2023-07-29T07:04:57;27.60;50.30
12060;DHT22;6091;51.432;6.880;2023-07-29T07:07:24;27.70;50.40
12060;DHT22;6091;51.432;6.880;2023-07-29T07:09:51;27.60;50.30
12060;DHT22;6091;51.432;6.880;2023-07-29T07:12:18;27.70;50.30
12060;DHT22;6091;51.432;6.880;2023-07-29T07:14:45;27.70;50.30
12060;DHT22;6091;51.432;6.880;2023-07-29T07:17:12;27.70;50.20
12060;DHT22;6091;51.432;6.880;2023-07-29T07:19:40;27.70;50.20
12060;DHT22;6091;51.432;6.880;2023-07-29T07:22:07;27.70;50.10
12060;DHT22;6091;51.432;6.880;2023-07-29T07:24:37;27.70;50.20
12060;DHT22;6091;51.432;6.880;2023-07-29T07:27:04;27.70;50.20
12060;DHT22;6091;51.432;6.880;2023-07-29T07:29:31;27.80;50.70
12060;DHT22;6091;51.432;6.880;2023-07-29T07:31:59;27.80;50.70
12060;DHT22;6091;51.432;6.880;2023-07-29T07:34:26;27.80;50.00
12060;DHT22;6091;51.432;6.880;2023-07-29T07:36:53;27.80;50.00
12060;DHT22;6091;51.432;6.880;2023-07-29T07:39:20;27.80;49.90
12060;DHT22;6091;51.432;6.880;2023-07-29T07:41:47;27.80;49.90
12060;DHT22;6091;51.432;6.880;2023-07-29T07:44:14;27.80;49.90
12060;DHT22;6091;51.432;6.880;2023-07-29T07:46:42;27.90;49.90
12060;DHT22;6091;51.432;6.880;2023-07-29T07:49:09;27.90;49.80
12060;DHT22;6091;51.432;6.880;2023-07-29T07:51:36;27.90;49.90
12060;DHT22;6091;51.432;6.880;2023-07-29T07:54:03;27.90;49.80
12060;DHT22;6091;51.432;6.880;2023-07-29T07:56:30;27.90;49.70
12060;DHT22;6091;51.432;6.880;2023-07-29T07:58:57;27.90;49.70
12060;DHT22;6091;51.432;6.880;2023-07-29T08:01:24;27.90;49.60
12060;DHT22;6091;51.432;6.880;2023-07-29T08:03:51;28.00;49.60
12060;DHT22;6091;51.432;6.880;2023-07-29T08:06:19;27.90;49.60
12060;DHT22;6091;51.432;6.880;2023-07-29T08:08:46;27.90;49.50
12060;DHT22;6091;51.432;6.880;2023-07-29T08:11:13;28.00;49.50
12060;DHT22;6091;51.432;6.880;2023-07-29T08:13:40;28.00;49.50
12060;DHT22;6091;51.432;6.880;2023-07-29T08:16:07;28.00;49.50
12060;DHT22;6091;51.432;6.880;2023-07-29T08:18:34;28.00;49.40
12060;DHT22;6091;51.432;6.880;2023-07-29T08:21:03;28.00;49.40
12060;DHT22;6091;51.432;6.880;2023-07-29T08:23:32;28.10;49.50
12060;DHT22;6091;51.432;6.880;2023-07-29T08:26:02;28.00;49.30
12060;DHT22;6091;51.432;6.880;2023-07-29T08:28:37;28.00;49.20
12060;DHT22;6091;51.432;6.880;2023-07-29T08:31:06;28.00;49.20
12060;DHT22;6091;51.432;6.880;2023-07-29T08:33:34;28.00;49.20
12060;DHT22;6091;51.432;6.880;2023-07-29T08:36:02;28.00;49.10
12060;DHT22;6091;51.432;6.880;2023-07-29T08:38:30;28.00;49.10
12060;DHT22;6091;51.432;6.880;2023-07-29T08:41:04;28.10;49.00
12060;DHT22;6091;51.432;6.880;2023-07-29T08:43:44;28.00;48.90
12060;DHT22;6091;51.432;6.880;2023-07-29T08:46:26;28.10;48.90
12060;DHT22;6091;51.432;6.880;2023-07-29T08:48:55;28.10;49.00
12060;DHT22;6091;51.432;6.880;2023-07-29T08:51:23;28.10;49.00
12060;DHT22;6091;51.432;6.880;2023-07-29T08:53:51;28.10;48.90
12060;DHT22;6091;51.432;6.880;2023-07-29T08:56:19;28.10;49.00
12060;DHT22;6091;51.432;6.880;2023-07-29T08:58:47;28.10;48.90
12060;DHT22;6091;51.432;6.880;2023-07-29T09:01:15;28.30;49.00
12060;DHT22;6091;51.432;6.880;2023-07-29T09:03:42;28.20;48.90
12060;DHT22;6091;51.432;6.880;2023-07-29T09:06:10;28.20;48.90
12060;DHT22;6091;51.432;6.880;2023-07-29T09:08:38;28.20;48.90
12060;DHT22;6091;51.432;6.880;2023-07-29T09:11:06;28.20;48.90
12060;DHT22;6091;51.432;6.880;2023-07-29T09:13:34;28.20;48.90
12060;DHT22;6091;51.432;6.880;2023-07-29T09:16:01;28.20;48.90
12060;DHT22;6091;51.432;6.880;2023-07-29T09:18:30;28.20;48.80
12060;DHT22;6091;51.432;6.880;2023-07-29T09:20:59;28.30;48.80
12060;DHT22;6091;51.432;6.880;2023-07-29T09:23:39;28.30;48.70
12060;DHT22;6091;51.432;6.880;2023-07-29T09:26:08;28.40;48.60
12060;DHT22;6091;51.432;6.880;2023-07-29T09:28:38;28.40;48.70
12060;DHT22;6091;51.432;6.880;2023-07-29T09:31:06;28.30;48.50
12060;DHT22;6091;51.432;6.880;2023-07-29T09:33:45;28.40;48.80
12060;DHT22;6091;51.432;6.880;2023-07-29T09:36:15;28.40;48.60
12060;DHT22;6091;51.432;6.880;2023-07-29T09:38:44;28.40;48.50
12060;DHT22;6091;51.432;6.880;2023-07-29T09:41:13;28.40;48.50
12060;DHT22;6091;51.432;6.880;2023-07-29T09:43:45;28.50;48.50
12060;DHT22;6091;51.432;6.880;2023-07-29T09:46:12;28.50;49.10
12060;DHT22;6091;51.432;6.880;2023-07-29T09:48:39;28.50;48.40
12060;DHT22;6091;51.432;6.880;2023-07-29T09:51:15;28.50;48.40
12060;DHT22;6091;51.432;6.880;2023-07-29T09:53:43;28.50;48.20
12060;DHT22;6091;51.432;6.880;2023-07-29T09:56:14;28.50;48.30
12060;DHT22;6091;51.432;6.880;2023-07-29T09:58:44;28.50;48.30
12060;DHT22;6091;51.432;6.880;2023-07-29T10:01:13;28.50;48.20
12060;DHT22;6091;51.432;6.880;2023-07-29T10:03:45;28.50;48.20
12060;DHT22;6091;51.432;6.880;2023-07-29T10:06:14;28.50;48.20
12060;DHT22;6091;51.432;6.880;2023-07-29T10:08:42;28.60;48.20
12060;DHT22;6091;51.432;6.880;2023-07-29T10:11:11;28.60;48.20
12060;DHT22;6091;51.432;6.880;2023-07-29T10:13:38;28.60;48.10
12060;DHT22;6091;51.432;6.880;2023-07-29T10:16:06;28.10;47.80
12060;DHT22;6091;51.432;6.880;2023-07-29T10:18:33;28.60;48.10
12060;DHT22;6091;51.432;6.880;2023-07-29T10:21:02;28.60;48.10
12060;DHT22;6091;51.432;6.880;2023-07-29T10:23:35;28.70;48.00
12060;DHT22;6091;51.432;6.880;2023-07-29T10:26:06;28.70;47.90
12060;DHT22;6091;51.432;6.880;2023-07-29T10:28:40;28.70;48.00
12060;DHT22;6091;51.432;6.880;2023-07-29T10:31:15;28.70;47.80
12060;DHT22;6091;51.432;6.880;2023-07-29T10:33:44;28.70;47.80
12060;DHT22;6091;51.432;6.880;2023-07-29T10:36:12;28.80;47.80
12060;DHT22;6091;51.432;6.880;2023-07-29T10:38:40;28.80;47.80
12060;DHT22;6091;51.432;6.880;2023-07-29T10:41:08;28.80;47.70
12060;DHT22;6091;51.432;6.880;2023-07-29T10:43:36;28.80;47.70
12060;DHT22;6091;51.432;6.880;2023-07-29T10:46:20;28.80;47.70
12060;DHT22;6091;51.432;6.880;2023-07-29T10:48:56;28.90;47.60
12060;DHT22;6091;51.432;6.880;2023-07-29T10:51:29;28.90;47.70
12060;DHT22;6091;51.432;6.880;2023-07-29T10:54:08;28.90;47.80
12060;DHT22;6091;51.432;6.880;2023-07-29T10:56:41;29.00;47.80
12060;DHT22;6091;51.432;6.880;2023-07-29T11:01:51;29.10;47.90
12060;DHT22;6091;51.432;6.880;2023-07-29T11:04:29;29.10;47.60
12060;DHT22;6091;51.432;6.880;2023-07-29T11:15:32;29.50;47.40
12060;DHT22;6091;51.432;6.880;2023-07-29T11:18:01;29.60;47.30
12060;DHT22;6091;51.432;6.880;2023-07-29T11:20:33;29.60;47.50
12060;DHT22;6091;51.432;6.880;2023-07-29T11:23:01;29.60;47.30
12060;DHT22;6091;51.432;6.880;2023-07-29T11:25:31;29.70;47.10
12060;DHT22;6091;51.432;6.880;2023-07-29T11:28:00;29.70;46.90
12060;DHT22;6091;51.432;6.880;2023-07-29T11:30:32;29.70;46.80
12060;DHT22;6091;51.432;6.880;2023-07-29T11:33:00;29.70;46.60
12060;DHT22;6091;51.432;6.880;2023-07-29T11:35:28;29.70;46.70
12060;DHT22;6091;51.432;6.880;2023-07-29T11:37:55;29.70;46.60
12060;DHT22;6091;51.432;6.880;2023-07-29T11:40:25;29.70;46.50
12060;DHT22;6091;51.432;6.880;2023-07-29T11:42:53;29.70;46.50
12060;DHT22;6091;51.432;6.880;2023-07-29T11:45:22;29.70;46.50
12060;DHT22;6091;51.432;6.880;2023-07-29T11:47:58;29.70;46.60
12060;DHT22;6091;51.432;6.880;2023-07-29T11:50:25;29.70;47.20
12060;DHT22;6091;51.432;6.880;2023-07-29T11:52:53;29.80;46.60
12060;DHT22;6091;51.432;6.880;2023-07-29T11:55:21;29.80;46.70
12060;DHT22;6091;51.432;6.880;2023-07-29T11:57:51;29.90;46.50
12060;DHT22;6091;51.432;6.880;2023-07-29T12:00:20;30.00;46.40
12060;DHT22;6091;51.432;6.880;2023-07-29T12:02:49;30.10;46.50
12060;DHT22;6091;51.432;6.880;2023-07-29T12:05:17;30.10;46.30
12060;DHT22;6091;51.432;6.880;2023-07-29T12:07:45;30.30;46.30
12060;DHT22;6091;51.432;6.880;2023-07-29T12:10:13;30.40;46.20
12060;DHT22;6091;51.432;6.880;2023-07-29T12:12:45;30.50;46.10
12060;DHT22;6091;51.432;6.880;2023-07-29T12:15:13;30.60;45.70
12060;DHT22;6091;51.432;6.880;2023-07-29T12:17:48;30.60;45.70
12060;DHT22;6091;51.432;6.880;2023-07-29T12:20:20;30.60;45.50
12060;DHT22;6091;51.432;6.880;2023-07-29T12:22:58;30.60;45.10
12060;DHT22;6091;51.432;6.880;2023-07-29T12:25:29;30.60;45.00
12060;DHT22;6091;51.432;6.880;2023-07-29T12:28:01;30.70;45.50
12060;DHT22;6091;51.432;6.880;2023-07-29T12:30:30;30.70;45.60
12060;DHT22;6091;51.432;6.880;2023-07-29T12:33:00;30.70;45.60
12060;DHT22;6091;51.432;6.880;2023-07-29T12:35:37;30.80;45.30
12060;DHT22;6091;51.432;6.880;2023-07-29T12:38:04;30.90;45.30
12060;DHT22;6091;51.432;6.880;2023-07-29T12:40:32;30.90;45.20
12060;DHT22;6091;51.432;6.880;2023-07-29T12:42:59;30.90;45.00
12060;DHT22;6091;51.432;6.880;2023-07-29T12:45:27;31.00;44.80
12060;DHT22;6091;51.432;6.880;2023-07-29T12:47:55;30.90;44.70
12060;DHT22;6091;51.432;6.880;2023-07-29T12:50:23;30.90;44.80
12060;DHT22;6091;51.432;6.880;2023-07-29T12:52:50;30.90;44.80
12060;DHT22;6091;51.432;6.880;2023-07-29T12:55:17;30.90;44.80
12060;DHT22;6091;51.432;6.880;2023-07-29T12:57:50;31.00;44.70
12060;DHT22;6091;51.432;6.880;2023-07-29T13:00:18;31.00;44.60
12060;DHT22;6091;51.432;6.880;2023-07-29T13:02:46;30.90;44.50
12060;DHT22;6091;51.432;6.880;2023-07-29T13:05:14;30.90;44.30
12060;DHT22;6091;51.432;6.880;2023-07-29T13:07:41;30.90;44.40
12060;DHT22;6091;51.432;6.880;2023-07-29T13:10:10;30.80;44.50
12060;DHT22;6091;51.432;6.880;2023-07-29T13:12:38;30.80;44.40
12060;DHT22;6091;51.432;6.880;2023-07-29T13:15:06;30.80;44.40
12060;DHT22;6091;51.432;6.880;2023-07-29T13:17:34;30.80;44.30
12060;DHT22;6091;51.432;6.880;2023-07-29T13:20:01;30.80;44.30
12060;DHT22;6091;51.432;6.880;2023-07-29T13:22:30;30.70;44.10
12060;DHT22;6091;51.432;6.880;2023-07-29T13:24:57;30.60;44.10
12060;DHT22;6091;51.432;6.880;2023-07-29T13:27:24;30.60;44.10
12060;DHT22;6091;51.432;6.880;2023-07-29T13:29:52;30.60;44.30
12060;DHT22;6091;51.432;6.880;2023-07-29T13:32:19;30.50;44.00
12060;DHT22;6091;51.432;6.880;2023-07-29T13:34:46;30.40;43.90
12060;DHT22;6091;51.432;6.880;2023-07-29T13:37:13;30.30;43.90
12060;DHT22;6091;51.432;6.880;2023-07-29T13:39:40;30.20;43.90
12060;DHT22;6091;51.432;6.880;2023-07-29T13:42:07;30.10;43.90
12060;DHT22;6091;51.432;6.880;2023-07-29T13:44:34;30.00;43.90
12060;DHT22;6091;51.432;6.880;2023-07-29T13:47:01;30.00;44.00
12060;DHT22;6091;51.432;6.880;2023-07-29T13:49:28;30.00;44.00
12060;DHT22;6091;51.432;6.880;2023-07-29T13:51:56;29.90;44.00
12060;DHT22;6091;51.432;6.880;2023-07-29T13:54:23;29.80;44.00
12060;DHT22;6091;51.432;6.880;2023-07-29T13:56:50;29.80;44.10
12060;DHT22;6091;51.432;6.880;2023-07-29T13:59:17;29.70;44.10
12060;DHT22;6091;51.432;6.880;2023-07-29T14:01:44;29.70;44.10
12060;DHT22;6091;51.432;6.880;2023-07-29T14:04:12;29.60;44.20
12060;DHT22;6091;51.432;6.880;2023-07-29T14:06:39;29.60;44.20
12060;DHT22;6091;51.432;6.880;2023-07-29T14:09:09;29.50;44.30
12060;DHT22;6091;51.432;6.880;2023-07-29T14:11:36;29.40;44.30
12060;DHT22;6091;51.432;6.880;2023-07-29T14:14:03;29.40;44.50
12060;DHT22;6091;51.432;6.880;2023-07-29T14:16:30;29.40;44.60
12060;DHT22;6091;51.432;6.880;2023-07-29T14:18:58;29.30;44.60
12060;DHT22;6091;51.432;6.880;2023-07-29T14:21:25;29.30;44.70
12060;DHT22;6091;51.432;6.880;2023-07-29T14:23:52;29.30;44.90
12060;DHT22;6091;51.432;6.880;2023-07-29T14:26:19;29.30;45.00
12060;DHT22;6091;51.432;6.880;2023-07-29T14:28:46;29.30;45.10
12060;DHT22;6091;51.432;6.880;2023-07-29T14:31:13;29.30;45.20
12060;DHT22;6091;51.432;6.880;2023-07-29T14:33:40;29.30;45.30
12060;DHT22;6091;51.432;6.880;2023-07-29T14:36:07;29.30;45.30
12060;DHT22;6091;51.432;6.880;2023-07-29T14:38:35;29.30;45.40
12060;DHT22;6091;51.432;6.880;2023-07-29T14:41:05;29.30;45.30
12060;DHT22;6091;51.432;6.880;2023-07-29T14:43:33;29.40;45.60
12060;DHT22;6091;51.432;6.880;2023-07-29T14:46:01;29.40;45.40
12060;DHT22;6091;51.432;6.880;2023-07-29T14:48:29;29.40;45.30
12060;DHT22;6091;51.432;6.880;2023-07-29T14:50:56;29.40;45.30
12060;DHT22;6091;51.432;6.880;2023-07-29T14:53:23;29.30;45.30
12060;DHT22;6091;51.432;6.880;2023-07-29T14:55:51;29.30;45.20
12060;DHT22;6091;51.432;6.880;2023-07-29T14:58:18;29.30;45.30
12060;DHT22;6091;51.432;6.880;2023-07-29T15:00:45;29.30;45.30
12060;DHT22;6091;51.432;6.880;2023-07-29T15:03:12;29.30;45.40
12060;DHT22;6091;51.432;6.880;2023-07-29T15:05:40;29.20;45.30
12060;DHT22;6091;51.432;6.880;2023-07-29T15:08:08;29.20;45.40
12060;DHT22;6091;51.432;6.880;2023-07-29T15:10:35;29.20;45.40
12060;DHT22;6091;51.432;6.880;2023-07-29T15:13:02;29.20;45.40
12060;DHT22;6091;51.432;6.880;2023-07-29T15:15:30;29.20;45.50
12060;DHT22;6091;51.432;6.880;2023-07-29T15:17:57;29.20;45.50
12060;DHT22;6091;51.432;6.880;2023-07-29T15:20:24;29.10;45.50
12060;DHT22;6091;51.432;6.880;2023-07-29T15:22:51;29.10;45.50
12060;DHT22;6091;51.432;6.880;2023-07-29T15:25:18;29.10;45.60
12060;DHT22;6091;51.432;6.880;2023-07-29T15:27:45;29.10;45.70
12060;DHT22;6091;51.432;6.880;2023-07-29T15:30:13;29.10;45.70
12060;DHT22;6091;51.432;6.880;2023-07-29T15:32:41;29.10;45.80
12060;DHT22;6091;51.432;6.880;2023-07-29T15:35:12;29.10;45.80
12060;DHT22;6091;51.432;6.880;2023-07-29T15:37:39;29.10;45.90
12060;DHT22;6091;51.432;6.880;2023-07-29T15:40:09;29.10;45.90
12060;DHT22;6091;51.432;6.880;2023-07-29T15:42:38;29.10;46.00
12060;DHT22;6091;51.432;6.880;2023-07-29T15:45:06;29.10;46.10
12060;DHT22;6091;51.432;6.880;2023-07-29T15:47:33;29.10;46.10
12060;DHT22;6091;51.432;6.880;2023-07-29T15:50:01;29.20;46.20
12060;DHT22;6091;51.432;6.880;2023-07-29T15:52:29;29.20;46.20
12060;DHT22;6091;51.432;6.880;2023-07-29T15:54:56;29.20;46.20
12060;DHT22;6091;51.432;6.880;2023-07-29T15:57:24;29.20;46.30
12060;DHT22;6091;51.432;6.880;2023-07-29T15:59:51;29.20;46.40
12060;DHT22;6091;51.432;6.880;2023-07-29T16:02:18;29.30;46.60
12060;DHT22;6091;51.432;6.880;2023-07-29T16:04:45;29.30;46.70
12060;DHT22;6091;51.432;6.880;2023-07-29T16:07:12;29.30;46.60